Time;durP1;ratioP1;P1;durP2;ratioP2;P2;SDS_P1;SDS_P2;PMS_P1;PMS_P2;Temp;Humidity;BMP_temperature;BMP_pressure;BME280_temperature;BME280_humidity;BME280_pressure;Samples;Min_cycle;Max_cycle;Signal;HPM_P1;HPM_P2
2022/12/07 00:00:01;;;;;;;2.92;2.10;;;16.40;57.60;;;;;;6183444;23;45341;-71
2022/12/07 00:02:30;;;;;;;2.58;1.92;;;16.40;57.60;;;;;;6184060;23;45509;-72
2022/12/07 00:04:56;;;;;;;2.42;1.80;;;16.40;57.60;;;;;;6183061;23;46592;-72
2022/12/07 00:07:23;;;;;;;3.17;1.95;;;16.40;57.70;;;;;;6183244;23;45213;-71
2022/12/07 00:09:50;;;;;;;3.20;2.03;;;16.40;57.70;;;;;;6184034;23;45216;-71
2022/12/07 00:12:17;;;;;;;2.97;1.73;;;16.40;57.60;;;;;;6183111;23;45343;-71
2022/12/07 00:14:44;;;;;;;3.55;2.25;;;16.40;57.50;;;;;;6183001;23;45201;-71
2022/12/07 00:17:10;;;;;;;4.18;1.92;;;16.40;57.40;;;;;;6183314;23;45288;-71
2022/12/07 00:19:38;;;;;;;2.95;2.00;;;16.50;57.50;;;;;;6183825;23;45405;-71
2022/12/07 00:22:05;;;;;;;4.20;2.10;;;16.40;57.40;;;;;;6184157;23;45413;-72
2022/12/07 00:24:32;;;;;;;2.47;1.98;;;16.40;57.30;;;;;;6182461;23;46659;-71
2022/12/07 00:26:59;;;;;;;2.55;1.90;;;16.50;57.40;;;;;;6183204;23;45263;-72
2022/12/07 00:29:26;;;;;;;2.92;2.10;;;16.40;57.50;;;;;;6183072;23;45445;-72
2022/12/07 00:31:52;;;;;;;4.05;2.33;;;16.40;57.30;;;;;;6184017;23;45519;-71
2022/12/07 00:34:21;;;;;;;3.05;2.00;;;16.50;57.30;;;;;;6182472;23;46606;-71
2022/12/07 00:36:51;;;;;;;2.55;1.80;;;16.40;57.20;;;;;;6182909;23;45214;-71
2022/12/07 00:39:17;;;;;;;3.30;2.10;;;16.50;57.40;;;;;;6183647;23;45333;-72
2022/12/07 00:41:44;;;;;;;2.90;2.08;;;16.40;57.40;;;;;;6185460;23;45174;-71
2022/12/07 00:44:11;;;;;;;3.58;2.50;;;16.40;57.30;;;;;;6182547;23;47554;-71
2022/12/07 00:46:38;;;;;;;3.53;2.38;;;16.40;57.30;;;;;;6182088;23;45305;-71
2022/12/07 00:49:05;;;;;;;4.35;2.70;;;16.40;57.30;;;;;;6183698;23;45232;-71
2022/12/07 00:51:32;;;;;;;4.75;2.63;;;16.40;57.40;;;;;;6183743;23;45239;-71
2022/12/07 00:54:00;;;;;;;2.70;1.98;;;16.40;57.40;;;;;;6182126;23;46558;-71
2022/12/07 00:56:28;;;;;;;3.22;2.00;;;16.40;57.50;;;;;;6183361;23;45187;-71
2022/12/07 00:58:56;;;;;;;4.88;2.92;;;16.40;57.60;;;;;;6183239;23;45225;-71
2022/12/07 01:01:23;;;;;;;3.05;2.25;;;16.40;57.60;;;;;;6183556;23;45571;-71
2022/12/07 01:03:50;;;;;;;3.00;2.20;;;16.40;57.60;;;;;;6182147;23;48214;-71
2022/12/07 01:06:18;;;;;;;3.20;2.20;;;16.40;57.50;;;;;;6183303;23;45247;-71
2022/12/07 01:08:45;;;;;;;3.92;2.60;;;16.40;57.60;;;;;;6183249;23;45480;-71
2022/12/07 01:11:16;;;;;;;3.47;2.63;;;16.40;57.60;;;;;;6183431;23;45284;-71
2022/12/07 01:13:43;;;;;;;3.35;2.50;;;16.40;57.50;;;;;;6183331;23;46528;-71
2022/12/07 01:16:12;;;;;;;3.60;2.55;;;16.40;57.60;;;;;;6182675;23;45213;-71
2022/12/07 01:18:40;;;;;;;3.75;2.60;;;16.40;57.60;;;;;;6183551;23;45328;-72
2022/12/07 01:21:09;;;;;;;4.05;2.63;;;16.40;57.50;;;;;;6183099;23;45392;-71
2022/12/07 01:23:36;;;;;;;5.03;2.60;;;16.50;57.70;;;;;;6182836;23;47882;-71
2022/12/07 01:26:05;;;;;;;3.53;2.72;;;16.50;57.60;;;;;;6182778;23;45341;-72
2022/12/07 01:28:34;;;;;;;3.70;3.10;;;16.40;57.50;;;;;;6183593;23;45160;-71
2022/12/07 01:31:03;;;;;;;3.83;2.75;;;16.40;57.50;;;;;;6183187;23;45526;-71
2022/12/07 01:33:31;;;;;;;4.05;2.78;;;16.40;57.40;;;;;;6182540;23;45521;-71
2022/12/07 01:36:02;;;;;;;4.72;3.05;;;16.40;57.60;;;;;;6183533;23;45322;-71
2022/12/07 01:38:30;;;;;;;4.47;2.40;;;16.40;57.60;;;;;;6182730;23;45334;-72
2022/12/07 01:40:57;;;;;;;3.58;2.63;;;16.40;57.60;;;;;;6183722;23;45517;-71
2022/12/07 01:43:26;;;;;;;3.80;2.80;;;16.40;57.60;;;;;;6182361;23;47289;-71
2022/12/07 01:45:55;;;;;;;3.72;2.60;;;16.40;57.70;;;;;;6180879;23;45307;-71
2022/12/07 01:48:25;;;;;;;4.82;2.75;;;16.40;57.60;;;;;;6183083;23;45214;-71
2022/12/07 01:50:55;;;;;;;3.72;2.75;;;16.40;57.60;;;;;;6182877;23;45376;-71
2022/12/07 01:53:24;;;;;;;3.72;2.78;;;16.40;57.70;;;;;;6182440;23;47471;-72
2022/12/07 01:55:54;;;;;;;3.65;2.83;;;16.40;57.70;;;;;;6182129;23;45357;-72
2022/12/07 01:58:21;;;;;;;3.72;2.70;;;16.40;57.50;;;;;;6183310;23;45402;-71
2022/12/07 02:00:48;;;;;;;3.92;2.83;;;16.40;57.50;;;;;;6183122;23;45397;-71
2022/12/07 02:03:20;;;;;;;3.45;2.25;;;16.40;57.50;;;;;;6182579;23;48453;-71
2022/12/07 02:05:49;;;;;;;4.13;2.70;;;16.40;57.70;;;;;;6183316;23;45314;-71
2022/12/07 02:08:15;;;;;;;4.07;2.90;;;16.40;57.40;;;;;;6182907;23;45452;-71
2022/12/07 02:10:42;;;;;;;4.55;3.08;;;16.40;57.40;;;;;;6183609;23;45266;-71
2022/12/07 02:13:13;;;;;;;6.00;2.70;;;16.40;57.40;;;;;;6182187;23;46831;-71
2022/12/07 02:15:54;;;;;;;3.80;2.78;;;16.50;58.60;;;;;;6183006;23;45200;-71
2022/12/07 02:18:32;;;;;;;3.95;2.97;;;16.50;57.50;;;;;;6183289;23;45389;-71
2022/12/07 02:21:05;;;;;;;3.92;2.65;;;16.40;57.40;;;;;;6183448;23;45213;-72
2022/12/07 02:24:14;;;;;;;5.88;3.25;;;16.40;57.50;;;;;;6182388;23;46293;-73
2022/12/07 02:27:08;;;;;;;5.47;2.75;;;16.40;57.50;;;;;;6183201;23;45272;-71
2022/12/07 02:29:41;;;;;;;3.85;2.83;;;16.40;57.60;;;;;;6185370;23;45167;-71
2022/12/07 02:32:13;;;;;;;3.85;2.70;;;16.40;57.60;;;;;;6183594;23;45399;-71
2022/12/07 02:34:51;;;;;;;4.30;3.05;;;16.40;57.60;;;;;;6182193;23;48551;-72
2022/12/07 02:37:29;;;;;;;4.22;3.00;;;16.40;57.80;;;;;;6179346;23;45312;-71
2022/12/07 02:40:02;;;;;;;6.05;2.95;;;16.30;57.60;;;;;;6182760;23;45467;-71
2022/12/07 02:42:35;;;;;;;5.03;2.97;;;16.40;57.70;;;;;;6182723;23;45305;-71
2022/12/07 02:45:06;;;;;;;3.53;2.58;;;16.40;57.70;;;;;;6180300;23;47124;-71
2022/12/07 02:47:36;;;;;;;4.07;2.70;;;16.40;57.70;;;;;;6180895;23;45352;-71
2022/12/07 02:50:04;;;;;;;5.93;2.72;;;16.40;57.70;;;;;;6182464;23;45233;-71
2022/12/07 02:52:32;;;;;;;3.83;2.78;;;16.40;57.60;;;;;;6182719;23;45520;-71
2022/12/07 02:54:59;;;;;;;4.22;2.88;;;16.40;57.50;;;;;;6180635;23;46492;-72
2022/12/07 02:57:44;;;;;;;4.32;2.75;;;16.40;57.60;;;;;;6182889;23;45208;-72
2022/12/07 03:00:16;;;;;;;4.30;2.95;;;16.40;57.60;;;;;;6183522;23;45484;-71
2022/12/07 03:02:52;;;;;;;5.65;3.13;;;16.50;57.50;;;;;;6184179;23;45411;-71
2022/12/07 03:05:34;;;;;;;3.65;2.92;;;16.50;57.60;;;;;;6182379;23;48026;-71
2022/12/07 03:08:05;;;;;;;5.05;3.03;;;16.50;57.60;;;;;;6184781;23;45254;-71
2022/12/07 03:10:41;;;;;;;4.57;2.90;;;16.40;57.60;;;;;;6183675;23;45289;-71
2022/12/07 03:13:13;;;;;;;4.82;3.20;;;16.40;57.60;;;;;;6184395;23;45143;-71
2022/12/07 03:15:47;;;;;;;3.63;2.60;;;16.40;57.40;;;;;;6182952;23;47367;-71
2022/12/07 03:18:19;;;;;;;4.30;2.92;;;16.40;57.50;;;;;;6184133;23;45381;-71
2022/12/07 03:20:50;;;;;;;4.65;3.00;;;16.40;57.70;;;;;;6183959;23;45258;-71
2022/12/07 03:23:20;;;;;;;3.75;2.80;;;16.40;57.70;;;;;;6183885;23;45495;-71
2022/12/07 03:25:50;;;;;;;4.03;2.92;;;16.40;57.60;;;;;;6183365;23;47048;-71
2022/12/07 03:28:20;;;;;;;5.63;3.00;;;16.40;57.70;;;;;;6183556;23;45229;-71
2022/12/07 03:30:53;;;;;;;2.70;2.38;;;16.40;57.60;;;;;;6184118;23;45302;-71
2022/12/07 03:33:25;;;;;;;3.20;2.50;;;16.40;57.60;;;;;;6183783;23;45271;-71
2022/12/07 03:36:00;;;;;;;4.20;2.60;;;16.40;57.70;;;;;;6183839;23;45384;-71
2022/12/07 03:38:32;;;;;;;4.72;2.80;;;16.40;57.60;;;;;;6183416;23;45348;-71
2022/12/07 03:41:04;;;;;;;3.70;2.70;;;16.40;57.70;;;;;;6184008;23;45261;-71
2022/12/07 03:43:32;;;;;;;4.15;2.72;;;16.40;57.40;;;;;;6183515;23;45371;-71
2022/12/07 03:46:10;;;;;;;3.88;2.88;;;16.40;57.50;;;;;;6180407;23;46293;-71
2022/12/07 03:48:41;;;;;;;4.88;3.17;;;16.40;57.40;;;;;;6184412;23;45281;-71
2022/12/07 03:51:14;;;;;;;4.55;2.85;;;16.40;57.40;;;;;;6183542;23;45281;-71
2022/12/07 03:53:47;;;;;;;3.75;2.50;;;16.40;57.50;;;;;;6182929;23;45394;-71
2022/12/07 03:56:15;;;;;;;4.50;2.90;;;16.40;57.50;;;;;;6183291;23;46974;-71
2022/12/07 03:58:43;;;;;;;4.93;3.10;;;16.50;57.60;;;;;;6183945;23;45349;-71
2022/12/07 04:01:11;;;;;;;5.70;2.97;;;16.40;57.40;;;;;;6183368;23;45189;-72
2022/12/07 04:03:38;;;;;;;3.03;2.42;;;16.40;57.40;;;;;;6183189;23;45232;-71
2022/12/07 04:06:05;;;;;;;5.07;2.92;;;16.40;57.50;;;;;;6183652;23;47241;-72
2022/12/07 04:08:32;;;;;;;3.75;2.60;;;16.50;57.50;;;;;;6183209;23;45347;-72
2022/12/07 04:10:59;;;;;;;3.78;2.85;;;16.50;57.50;;;;;;6183357;23;45293;-72
2022/12/07 04:13:26;;;;;;;4.70;2.80;;;16.50;57.50;;;;;;6183238;23;45291;-71
2022/12/07 04:15:52;;;;;;;3.72;2.72;;;16.40;57.30;;;;;;6183395;23;46387;-71
2022/12/07 04:18:21;;;;;;;4.32;2.85;;;16.50;57.30;;;;;;6185366;23;45368;-72
2022/12/07 04:20:48;;;;;;;5.68;2.97;;;16.50;57.30;;;;;;6183487;23;45249;-71
2022/12/07 04:23:15;;;;;;;3.63;2.80;;;16.40;57.20;;;;;;6183658;23;45320;-71
2022/12/07 04:25:41;;;;;;;4.68;2.88;;;16.40;57.10;;;;;;6182091;23;47879;-71
2022/12/07 04:28:08;;;;;;;3.53;2.38;;;16.40;57.20;;;;;;6183473;23;45270;-71
2022/12/07 04:30:35;;;;;;;4.07;2.85;;;16.40;57.10;;;;;;6183308;23;45404;-72
2022/12/07 04:33:02;;;;;;;3.53;2.47;;;16.40;57.10;;;;;;6183708;23;45573;-71
2022/12/07 04:35:30;;;;;;;4.13;2.67;;;16.40;57.00;;;;;;6181445;23;46508;-71
2022/12/07 04:37:57;;;;;;;3.60;2.35;;;16.40;58.40;;;;;;6183655;23;45985;-71
2022/12/07 04:40:23;;;;;;;5.10;2.55;;;16.40;57.20;;;;;;6183814;23;45302;-71
2022/12/07 04:42:50;;;;;;;4.15;2.50;;;16.40;57.20;;;;;;6183576;23;45233;-71
2022/12/07 04:45:17;;;;;;;4.05;2.60;;;16.40;57.30;;;;;;6180161;23;45237;-72
2022/12/07 04:47:44;;;;;;;4.55;2.63;;;16.40;57.30;;;;;;6182140;23;45332;-71
2022/12/07 04:50:11;;;;;;;3.85;2.47;;;16.40;57.40;;;;;;6183856;23;45217;-71
2022/12/07 04:52:39;;;;;;;4.53;2.50;;;16.40;57.40;;;;;;6183894;23;45477;-71
2022/12/07 04:55:06;;;;;;;3.20;2.20;;;16.40;57.40;;;;;;6181241;23;46467;-71
2022/12/07 04:57:33;;;;;;;4.72;2.25;;;16.40;57.50;;;;;;6183921;23;45410;-71
2022/12/07 05:00:00;;;;;;;3.50;2.13;;;16.50;57.60;;;;;;6183015;23;45345;-71
2022/12/07 05:02:27;;;;;;;5.00;2.60;;;16.40;57.40;;;;;;6183649;23;45298;-71
2022/12/07 05:04:54;;;;;;;3.15;2.08;;;16.40;57.30;;;;;;6182318;23;47774;-72
2022/12/07 05:07:21;;;;;;;2.75;1.80;;;16.50;57.40;;;;;;6183481;23;45260;-71
2022/12/07 05:09:49;;;;;;;3.92;2.50;;;16.50;57.40;;;;;;6183536;23;45358;-71
2022/12/07 05:12:16;;;;;;;2.65;2.03;;;16.50;57.60;;;;;;6183676;23;45506;-71
2022/12/07 05:14:43;;;;;;;3.28;1.98;;;16.50;57.50;;;;;;6182643;23;46568;-71
2022/12/07 05:17:11;;;;;;;2.70;2.08;;;16.50;57.50;;;;;;6182844;23;45414;-73
2022/12/07 05:19:38;;;;;;;2.25;1.80;;;16.50;57.50;;;;;;6183569;23;45337;-72
2022/12/07 05:22:04;;;;;;;2.45;1.70;;;16.50;57.50;;;;;;6183010;23;45371;-71
2022/12/07 05:24:31;;;;;;;2.88;1.88;;;16.50;57.50;;;;;;6182892;23;46625;-71
2022/12/07 05:26:59;;;;;;;2.55;1.77;;;16.50;57.40;;;;;;6182915;23;45292;-72
2022/12/07 05:29:26;;;;;;;2.65;1.80;;;16.50;57.40;;;;;;6183298;23;45321;-71
2022/12/07 05:31:53;;;;;;;3.45;1.95;;;16.50;57.40;;;;;;6183434;23;45408;-71
2022/12/07 05:34:20;;;;;;;3.60;1.90;;;16.50;57.40;;;;;;6182057;23;46326;-71
2022/12/07 05:36:46;;;;;;;2.63;1.58;;;16.50;57.40;;;;;;6182646;23;45421;-71
2022/12/07 05:39:13;;;;;;;2.40;1.70;;;16.50;57.40;;;;;;6183473;23;45238;-71
2022/12/07 05:44:25;;;;;;;2.20;1.63;;;16.50;57.10;;;;;;6180393;23;45245;-71
2022/12/07 05:46:52;;;;;;;2.60;1.88;;;16.50;57.10;;;;;;6181496;23;45289;-72
2022/12/07 05:49:19;;;;;;;2.60;1.88;;;16.50;57.00;;;;;;6183638;23;45380;-71
2022/12/07 05:51:46;;;;;;;3.45;1.92;;;16.50;57.10;;;;;;6182925;23;45319;-71
2022/12/07 05:54:12;;;;;;;2.45;1.88;;;16.50;57.10;;;;;;6182203;23;48270;-72
2022/12/07 05:56:39;;;;;;;2.63;1.75;;;16.50;57.00;;;;;;6182604;23;45236;-71
2022/12/07 05:59:24;;;;;;;3.38;1.80;;;16.50;56.90;;;;;;6183709;23;45221;-71
2022/12/07 06:01:54;;;;;;;2.97;1.42;;;16.50;56.90;;;;;;6183105;23;45410;-71
2022/12/07 06:04:21;;;;;;;2.72;1.77;;;16.50;57.00;;;;;;6182740;23;47175;-71
2022/12/07 06:06:48;;;;;;;2.58;1.83;;;16.50;57.10;;;;;;6183345;23;45634;-72
2022/12/07 06:09:16;;;;;;;1.73;1.50;;;16.50;57.10;;;;;;6185551;23;45317;-71
2022/12/07 06:14:27;;;;;;;2.38;1.73;;;16.50;57.20;;;;;;6182205;23;45344;-71
2022/12/07 06:16:55;;;;;;;1.70;1.50;;;16.50;57.10;;;;;;6183425;23;46146;-72
2022/12/07 06:19:22;;;;;;;2.28;1.60;;;16.50;57.00;;;;;;6183269;23;45230;-72
2022/12/07 06:21:49;;;;;;;2.75;1.98;;;16.50;58.10;;;;;;6183278;23;45379;-72
2022/12/07 06:24:17;;;;;;;2.88;1.63;;;16.50;56.90;;;;;;6182267;23;46535;-71
2022/12/07 06:26:44;;;;;;;3.25;1.67;;;16.50;56.80;;;;;;6182810;23;45265;-71
2022/12/07 06:29:12;;;;;;;2.90;1.67;;;16.50;57.00;;;;;;6183064;23;45259;-71
2022/12/07 06:31:39;;;;;;;3.42;2.08;;;16.40;57.00;;;;;;6182757;23;45429;-71
2022/12/07 06:34:10;;;;;;;3.17;2.08;;;16.50;57.00;;;;;;6182057;23;46667;-71
2022/12/07 06:36:37;;;;;;;2.70;1.70;;;16.50;57.00;;;;;;6181846;23;45467;-71
2022/12/07 06:39:05;;;;;;;3.53;1.95;;;16.40;56.90;;;;;;6183266;23;45225;-71
2022/12/07 06:41:32;;;;;;;3.97;2.00;;;16.40;57.00;;;;;;6182949;23;45513;-71
2022/12/07 06:43:58;;;;;;;2.45;1.65;;;16.50;57.10;;;;;;6180837;23;45456;-73
2022/12/07 06:46:25;;;;;;;2.28;1.30;;;16.40;57.10;;;;;;6180591;23;45295;-71
2022/12/07 06:48:52;;;;;;;3.00;1.67;;;16.50;57.20;;;;;;6182725;23;45304;-71
2022/12/07 06:51:20;;;;;;;2.05;1.23;;;16.50;57.20;;;;;;6183143;23;45412;-71
2022/12/07 06:53:47;;;;;;;3.45;1.40;;;16.50;58.60;;;;;;6181305;23;46262;-71
2022/12/07 06:56:14;;;;;;;1.95;1.33;;;16.50;57.30;;;;;;6182795;23;45389;-71
2022/12/07 06:58:41;;;;;;;2.30;1.60;;;16.50;57.20;;;;;;6182558;23;45288;-71
2022/12/07 07:01:11;;;;;;;1.77;1.20;;;16.50;57.40;;;;;;6182891;23;45285;-71
2022/12/07 07:03:38;;;;;;;2.65;1.50;;;16.50;57.30;;;;;;6182518;23;47090;-71
2022/12/07 07:06:05;;;;;;;2.35;1.50;;;16.50;57.20;;;;;;6181562;23;45871;-72
2022/12/07 07:08:33;;;;;;;3.70;1.63;;;16.50;57.10;;;;;;6183089;23;45268;-71
2022/12/07 07:11:00;;;;;;;3.65;1.67;;;16.50;57.10;;;;;;6182216;23;45314;-71
2022/12/07 07:13:26;;;;;;;2.05;1.60;;;16.50;57.10;;;;;;6182760;23;47058;-71
2022/12/07 07:15:54;;;;;;;2.88;1.48;;;16.40;57.00;;;;;;6181731;23;45315;-71
2022/12/07 07:18:20;;;;;;;2.65;1.60;;;16.50;57.00;;;;;;6182629;23;45264;-72
2022/12/07 07:20:47;;;;;;;1.92;1.35;;;16.40;56.90;;;;;;6182683;23;45197;-71
2022/12/07 07:23:14;;;;;;;2.75;1.58;;;16.40;56.90;;;;;;6182039;23;47417;-71
2022/12/07 07:25:42;;;;;;;2.78;1.30;;;16.40;56.90;;;;;;6182336;23;46017;-72
2022/12/07 07:28:09;;;;;;;1.75;1.38;;;16.40;57.00;;;;;;6182115;23;45284;-72
2022/12/07 07:30:36;;;;;;;2.45;1.38;;;16.50;57.10;;;;;;6182774;23;45563;-71
2022/12/07 07:33:05;;;;;;;1.10;1.00;;;16.50;57.10;;;;;;6181983;23;47468;-71
2022/12/07 07:35:34;;;;;;;2.13;1.20;;;16.40;57.00;;;;;;6181594;23;45664;-71
2022/12/07 07:38:01;;;;;;;1.65;1.20;;;16.40;56.90;;;;;;6182432;22;45299;-71
2022/12/07 07:40:28;;;;;;;1.75;1.27;;;16.40;56.80;;;;;;6182185;23;45318;-71
2022/12/07 07:42:57;;;;;;;1.92;1.35;;;16.50;56.90;;;;;;6182445;23;46373;-71
2022/12/07 07:45:26;;;;;;;2.72;1.50;;;16.50;57.00;;;;;;6179479;23;45296;-73
2022/12/07 07:47:54;;;;;;;5.82;1.55;;;16.50;56.90;;;;;;6182376;23;45203;-71
2022/12/07 07:50:21;;;;;;;2.50;1.35;;;16.50;57.00;;;;;;6183643;23;45372;-71
2022/12/07 07:52:48;;;;;;;1.83;1.38;;;16.50;56.80;;;;;;6183451;23;46569;-71
2022/12/07 07:55:15;;;;;;;2.85;1.30;;;16.50;56.90;;;;;;6182660;23;45933;-71
2022/12/07 07:57:42;;;;;;;2.53;1.38;;;16.50;56.90;;;;;;6186200;23;45431;-71
2022/12/07 08:00:13;;;;;;;3.30;1.30;;;16.50;56.80;;;;;;6184060;23;45502;-71
2022/12/07 08:02:40;;;;;;;1.98;1.17;;;16.40;56.60;;;;;;6183468;23;47034;-71
2022/12/07 08:05:08;;;;;;;2.80;1.40;;;16.50;56.90;;;;;;6182931;23;45361;-71
2022/12/07 08:07:34;;;;;;;3.05;1.70;;;16.50;56.80;;;;;;6183555;23;45284;-71
2022/12/07 08:10:01;;;;;;;2.53;1.38;;;16.40;56.80;;;;;;6183905;23;45221;-72
2022/12/07 08:12:28;;;;;;;3.03;1.58;;;16.40;56.90;;;;;;6183687;23;46619;-72
2022/12/07 08:14:55;;;;;;;2.17;1.55;;;16.40;56.80;;;;;;6182540;23;45332;-71
2022/12/07 08:17:23;;;;;;;3.03;1.88;;;16.40;56.70;;;;;;6184338;23;45244;-71
2022/12/07 08:19:50;;;;;;;2.85;1.45;;;16.40;56.70;;;;;;6183582;23;45423;-71
2022/12/07 08:22:17;;;;;;;2.75;1.77;;;16.40;56.70;;;;;;6184036;23;47425;-71
2022/12/07 08:24:44;;;;;;;2.95;1.70;;;16.40;56.90;;;;;;6182674;23;45276;-71
2022/12/07 08:27:10;;;;;;;3.28;1.75;;;16.40;56.80;;;;;;6183470;23;45425;-71
2022/12/07 08:29:37;;;;;;;2.53;1.60;;;16.40;57.00;;;;;;6184340;23;45372;-71
2022/12/07 08:32:04;;;;;;;2.42;1.60;;;16.40;56.90;;;;;;6182916;23;47331;-71
2022/12/07 08:34:33;;;;;;;3.53;1.52;;;16.40;57.00;;;;;;6183118;23;45229;-71
2022/12/07 08:36:59;;;;;;;2.40;1.38;;;16.40;57.00;;;;;;6182887;23;45445;-71
2022/12/07 08:39:27;;;;;;;3.65;1.77;;;16.40;57.00;;;;;;6183803;23;45416;-71
2022/12/07 08:41:53;;;;;;;2.10;1.50;;;16.40;56.90;;;;;;6183010;23;46585;-71
2022/12/07 08:44:20;;;;;;;3.08;1.63;;;16.40;57.00;;;;;;6181849;23;45190;-70
2022/12/07 08:46:50;;;;;;;2.00;1.50;;;16.50;57.00;;;;;;6181823;23;45170;-71
2022/12/07 08:49:22;;;;;;;5.80;2.03;;;16.40;56.90;;;;;;6183402;23;45284;-71
2022/12/07 08:51:51;;;;;;;3.05;1.77;;;16.40;56.90;;;;;;6183307;23;46282;-72
2022/12/07 08:54:19;;;;;;;3.35;1.85;;;16.40;56.90;;;;;;6181288;23;45972;-70
2022/12/07 08:56:47;;;;;;;3.10;1.80;;;16.40;56.80;;;;;;6183332;23;45289;-71
2022/12/07 08:59:17;;;;;;;2.58;1.98;;;16.40;56.90;;;;;;6183281;23;45257;-71
2022/12/07 09:01:44;;;;;;;2.95;2.08;;;16.40;56.90;;;;;;6182983;23;47662;-71
2022/12/07 09:04:11;;;;;;;3.33;2.00;;;16.40;57.00;;;;;;6183187;23;45348;-71
2022/12/07 09:06:38;;;;;;;2.60;1.83;;;16.40;56.90;;;;;;6183154;23;45229;-71
2022/12/07 09:09:07;;;;;;;3.17;1.90;;;16.40;57.00;;;;;;6184001;23;45347;-71
2022/12/07 09:11:34;;;;;;;2.58;1.70;;;16.40;56.90;;;;;;6183384;23;48356;-71
2022/12/07 09:14:01;;;;;;;3.20;2.10;;;16.40;56.90;;;;;;6183119;23;45218;-71
2022/12/07 09:16:28;;;;;;;2.42;1.75;;;16.40;56.90;;;;;;6182267;23;45476;-71
2022/12/07 09:18:55;;;;;;;2.58;1.85;;;16.40;57.00;;;;;;6183818;23;45378;-71
2022/12/07 09:21:22;;;;;;;3.20;1.92;;;16.40;56.90;;;;;;6183219;23;48098;-71
2022/12/07 09:23:48;;;;;;;2.92;1.92;;;16.40;57.00;;;;;;6183044;23;45324;-71
2022/12/07 09:26:17;;;;;;;3.15;1.90;;;16.50;57.10;;;;;;6183158;23;45356;-71
2022/12/07 09:28:44;;;;;;;2.47;1.60;;;16.40;57.10;;;;;;6182990;23;45390;-71
2022/12/07 09:31:11;;;;;;;3.42;2.05;;;16.40;57.00;;;;;;6182950;23;46512;-71
2022/12/07 09:33:38;;;;;;;4.18;1.83;;;16.50;57.10;;;;;;6182752;23;45298;-71
2022/12/07 09:36:06;;;;;;;3.15;1.77;;;16.40;57.10;;;;;;6182566;23;45265;-71
2022/12/07 09:38:32;;;;;;;4.82;1.75;;;16.40;57.00;;;;;;6183557;22;45246;-72
2022/12/07 09:41:05;;;;;;;3.50;1.50;;;16.40;57.00;;;;;;6182966;23;48265;-71
2022/12/07 09:43:34;;;;;;;3.75;1.90;;;16.40;57.00;;;;;;6183007;23;45378;-71
2022/12/07 09:46:01;;;;;;;2.00;1.45;;;16.40;56.90;;;;;;6180267;23;45290;-71
2022/12/07 09:48:32;;;;;;;2.65;1.80;;;16.40;57.00;;;;;;6184230;23;45284;-71
2022/12/07 09:51:01;;;;;;;3.65;1.67;;;16.40;57.00;;;;;;6182447;23;47886;-71
2022/12/07 09:53:31;;;;;;;2.30;1.73;;;16.40;56.90;;;;;;6183000;23;45261;-71
2022/12/07 09:55:58;;;;;;;3.47;1.95;;;16.40;56.90;;;;;;6181722;23;45354;-71
2022/12/07 09:58:27;;;;;;;2.28;1.60;;;16.40;56.90;;;;;;6183457;23;45332;-71
2022/12/07 10:00:58;;;;;;;2.72;1.73;;;16.40;56.90;;;;;;6183701;23;46469;-71
2022/12/07 10:03:27;;;;;;;2.50;1.95;;;16.40;56.90;;;;;;6182874;23;45434;-71
2022/12/07 10:05:54;;;;;;;2.53;1.70;;;16.40;56.90;;;;;;6182806;23;45221;-71
2022/12/07 10:08:21;;;;;;;3.00;1.80;;;16.40;57.00;;;;;;6182329;23;45378;-71
2022/12/07 10:10:51;;;;;;;2.47;1.70;;;16.40;57.00;;;;;;6183300;23;47232;-71
2022/12/07 10:13:21;;;;;;;2.67;1.73;;;16.40;57.10;;;;;;6183095;23;45421;-71
2022/12/07 10:15:52;;;;;;;2.88;1.77;;;16.40;57.10;;;;;;6182350;23;45190;-72
2022/12/07 10:18:40;;;;;;;3.90;1.92;;;16.40;57.00;;;;;;6183500;23;45260;-71
2022/12/07 10:21:14;;;;;;;3.72;1.75;;;16.40;57.00;;;;;;6182431;23;47246;-71
2022/12/07 10:23:43;;;;;;;2.22;1.38;;;16.40;57.10;;;;;;6183578;23;45167;-71
2022/12/07 10:26:29;;;;;;;2.22;1.50;;;16.40;57.00;;;;;;6181695;23;45273;-71
2022/12/07 10:28:59;;;;;;;2.95;1.60;;;16.40;57.00;;;;;;6183351;23;45246;-71
2022/12/07 10:31:26;;;;;;;2.28;1.70;;;16.50;57.10;;;;;;6182175;23;46524;-71
2022/12/07 10:33:56;;;;;;;2.80;1.77;;;16.50;57.00;;;;;;6183359;23;45660;-71
2022/12/07 10:36:25;;;;;;;4.70;1.90;;;16.40;56.90;;;;;;6182317;23;45240;-71
2022/12/07 10:38:54;;;;;;;2.78;1.80;;;16.40;56.80;;;;;;6183082;23;45518;-71
2022/12/07 10:41:21;;;;;;;3.67;1.80;;;16.40;57.30;;;;;;6185804;23;45379;-71
2022/12/07 10:43:53;;;;;;;2.83;1.80;;;16.40;57.00;;;;;;6182162;23;45318;-71
2022/12/07 10:47:03;;;;;;;3.58;1.88;;;16.40;57.00;;;;;;6180749;23;45314;-71
2022/12/07 10:49:54;;;;;;;3.55;2.03;;;16.40;57.00;;;;;;6151880;23;45745;-71
2022/12/07 10:52:32;;;;;;;2.47;1.45;;;16.40;57.00;;;;;;6182659;23;48371;-71
2022/12/07 10:55:14;;;;;;;5.35;2.25;;;16.40;57.20;;;;;;6181492;23;45323;-71
2022/12/07 10:57:57;;;;;;;2.70;1.75;;;16.40;57.20;;;;;;6182970;23;45212;-71
2022/12/07 11:00:26;;;;;;;3.35;1.75;;;16.40;57.10;;;;;;6182452;23;45481;-71
2022/12/07 11:03:22;;;;;;;3.45;1.83;;;16.40;57.10;;;;;;6183401;23;46379;-71
2022/12/07 11:06:01;;;;;;;3.17;1.63;;;16.40;57.10;;;;;;6181858;23;45323;-72
2022/12/07 11:08:47;;;;;;;2.83;1.60;;;16.40;57.10;;;;;;6183168;23;45223;-71
2022/12/07 11:11:17;;;;;;;2.63;1.58;;;16.40;57.00;;;;;;6183136;23;45294;-71
2022/12/07 11:13:54;;;;;;;3.03;1.67;;;16.40;57.10;;;;;;6182751;23;45368;-71
2022/12/07 11:16:27;;;;;;;3.30;1.70;;;16.40;57.10;;;;;;6181716;23;45276;-71
2022/12/07 11:19:07;;;;;;;4.22;2.08;;;16.50;57.00;;;;;;6183727;23;45419;-71
2022/12/07 11:21:45;;;;;;;4.05;1.70;;;16.50;57.00;;;;;;6184324;23;45316;-71
2022/12/07 11:24:16;;;;;;;2.72;1.58;;;16.40;57.00;;;;;;6183073;23;47429;-71
2022/12/07 11:26:58;;;;;;;2.17;1.70;;;16.50;57.00;;;;;;6184222;23;45220;-71
2022/12/07 11:29:48;;;;;;;2.75;1.80;;;16.40;57.00;;;;;;6183971;23;45298;-71
2022/12/07 11:32:21;;;;;;;3.63;1.70;;;16.50;57.00;;;;;;6184010;23;45613;-72
2022/12/07 11:34:59;;;;;;;2.83;1.95;;;16.50;57.00;;;;;;6182804;23;45436;-71
2022/12/07 11:37:32;;;;;;;3.85;1.75;;;16.40;57.00;;;;;;6183464;23;45301;-71
2022/12/07 11:40:03;;;;;;;2.72;1.73;;;16.50;57.00;;;;;;6183758;23;45265;-71
2022/12/07 11:42:34;;;;;;;2.97;1.98;;;16.40;57.00;;;;;;6184245;23;45308;-71
2022/12/07 11:45:11;;;;;;;4.20;2.00;;;16.40;56.90;;;;;;6181576;23;46999;-72
2022/12/07 11:47:46;;;;;;;2.95;1.77;;;16.40;57.00;;;;;;6182101;23;45264;-71
2022/12/07 11:50:31;;;;;;;2.90;1.80;;;16.40;57.00;;;;;;6183994;23;45284;-72
2022/12/07 11:53:03;;;;;;;3.38;1.77;;;16.40;57.10;;;;;;6183899;23;45426;-72
2022/12/07 11:55:42;;;;;;;2.55;1.80;;;16.40;57.20;;;;;;6182582;23;47497;-71
2022/12/07 11:58:21;;;;;;;3.20;1.67;;;16.40;57.10;;;;;;6183454;23;45467;-71
2022/12/07 12:00:50;;;;;;;2.92;1.55;;;16.50;57.30;;;;;;6184061;23;45273;-71
2022/12/07 12:03:24;;;;;;;2.60;1.48;;;16.40;57.10;;;;;;6183570;23;45653;-71
2022/12/07 12:05:50;;;;;;;3.00;1.80;;;16.50;57.10;;;;;;6183189;23;45360;-71
2022/12/07 12:08:24;;;;;;;2.72;1.70;;;16.50;57.10;;;;;;6183605;23;45233;-71
2022/12/07 12:10:56;;;;;;;2.40;1.35;;;16.50;57.20;;;;;;6184130;23;45236;-71
2022/12/07 12:13:51;;;;;;;2.45;1.52;;;16.50;57.10;;;;;;6184217;23;45312;-72
2022/12/07 12:16:39;;;;;;;2.33;1.40;;;16.50;57.20;;;;;;6183173;23;45412;-71
2022/12/07 12:19:23;;;;;;;3.95;2.10;;;16.50;57.00;;;;;;6178933;23;45345;-71
2022/12/07 12:21:55;;;;;;;3.15;1.60;;;16.50;56.90;;;;;;6183743;23;45325;-71
2022/12/07 12:24:26;;;;;;;5.22;1.60;;;16.50;57.00;;;;;;6183449;23;45321;-71
2022/12/07 12:26:58;;;;;;;2.47;1.55;;;16.50;56.90;;;;;;6183091;23;47081;-72
2022/12/07 12:29:31;;;;;;;3.63;1.80;;;16.50;56.90;;;;;;6186568;23;45237;-71
2022/12/07 12:32:15;;;;;;;2.22;1.63;;;16.40;56.80;;;;;;6183382;23;45229;-71
2022/12/07 12:34:58;;;;;;;1.95;1.20;;;16.40;56.80;;;;;;6183572;23;45315;-72
2022/12/07 12:37:44;;;;;;;3.83;1.77;;;16.40;56.90;;;;;;6182714;23;47684;-71
2022/12/07 12:40:40;;;;;;;1.88;1.35;;;16.40;56.80;;;;;;6183519;23;46154;-71
2022/12/07 12:43:40;;;;;;;3.60;1.77;;;16.40;56.80;;;;;;6183491;23;45291;-71
2022/12/07 12:46:37;;;;;;;3.38;1.60;;;16.40;56.80;;;;;;6180393;23;46187;-71
2022/12/07 12:49:33;;;;;;;2.95;1.50;;;16.40;56.90;;;;;;6183292;23;47099;-71
2022/12/07 12:52:03;;;;;;;4.20;1.60;;;16.50;56.80;;;;;;6183438;23;46037;-71
2022/12/07 12:54:32;;;;;;;2.28;1.40;;;16.50;57.00;;;;;;6181860;23;45475;-71
2022/12/07 12:57:07;;;;;;;3.03;1.60;;;16.50;56.90;;;;;;6183737;23;45347;-71
2022/12/07 12:59:36;;;;;;;2.80;1.50;;;16.50;56.70;;;;;;6183103;23;45428;-71
2022/12/07 13:02:20;;;;;;;2.95;1.35;;;16.50;56.70;;;;;;6183216;23;45613;-71
2022/12/07 13:04:55;;;;;;;3.00;1.40;;;16.50;56.70;;;;;;6183437;23;45380;-71
2022/12/07 13:07:54;;;;;;;2.45;1.40;;;16.50;56.80;;;;;;6183634;23;45471;-71
2022/12/07 13:10:42;;;;;;;2.95;1.50;;;16.50;56.80;;;;;;6183242;23;45290;-71